KIKW

Jack Barstow Airport

Midland, Michigan, USA
METAR KIKW 180255Z AUTO 11005KT 2 1/2SM BR OVC004 M02/M03 A3000 RMK AO2 T10221028
Observed Flight Rules
Dec-18 @ 02:55 UTC (12 minutes ago) Instrument Flight Rules
Wind Visibility Clouds Conditions
110° at 5 knots 2 1/2 miles
  • Overcast at 400' AGL
  • Mist
Temperatures Readings
Current -2°C / 28°F
Dewpoint -3°C / 27°F
Humidity 93%
Altimeter 30" Hg
Pressure 1016 hPa
Elevation 194
METAR KIKW 180255Z AUTO 11005KT 2 1/2SM BR OVC004 M02/M03 A3000 RMK AO2 T10221028
Observed Flight Rules
Dec-18 @ 02:55 UTC
(12 minutes ago)
LIFR
Wind Visibility
110° at 5 knots 2 1/2 miles
Clouds
  • Overcast at 400' AGL
Conditions
  • Mist
Temperature Dewpoint
-2°C / 28°F -3°C / 27°F
Humidity Altimeter Pressure
93% 30" Hg 1016 hPa